Time;durP1;ratioP1;P1;durP2;ratioP2;P2;SDS_P1;SDS_P2;PMS_P1;PMS_P2;Temp;Humidity;BMP_temperature;BMP_pressure;BME280_temperature;BME280_humidity;BME280_pressure;Samples;Min_cycle;Max_cycle;Signal;HPM_P1;HPM_P2
2023/07/22 02:09:55;;;;;;;2.50;2.30;;;;;;;;;;6177600;23;20426;-93
2023/07/22 02:12:23;;;;;;;4.93;4.05;;;;;;;;;;6181760;23;20155;-91
2023/07/22 02:14:51;;;;;;;3.47;3.17;;;;;;;;;;6181619;23;20182;-92
2023/07/22 02:17:18;;;;;;;3.85;3.53;;;;;;;;;;6180635;23;20190;-92
2023/07/22 02:19:46;;;;;;;4.28;3.88;;;;;;;;;;6150573;23;20200;-92
2023/07/22 02:22:14;;;;;;;3.03;2.83;;;;;;;;;;6151986;23;20177;-92
2023/07/22 02:24:41;;;;;;;3.53;3.10;;;;;;;;;;6151759;23;20179;-92
2023/07/22 02:27:10;;;;;;;3.03;2.72;;;;;;;;;;6153591;23;20176;-92
2023/07/22 02:29:38;;;;;;;2.20;2.00;;;;;;;;;;6153654;23;20182;-92
2023/07/22 02:32:07;;;;;;;6.40;2.22;;;;;;;;;;6151918;23;20195;-92
2023/07/22 02:34:34;;;;;;;2.50;2.30;;;;;;;;;;6150934;23;20172;-92
2023/07/22 02:37:02;;;;;;;2.92;2.70;;;;;;;;;;6150544;23;20156;-92
2023/07/22 02:39:29;;;;;;;2.70;2.50;;;;;;;;;;6150052;23;20192;-91
2023/07/22 02:41:57;;;;;;;2.67;2.47;;;;;;;;;;6151127;23;20209;-92
2023/07/22 02:44:26;;;;;;;2.08;1.98;;;;;;;;;;6150961;23;20178;-93
2023/07/22 02:46:54;;;;;;;2.90;2.70;;;;;;;;;;6151454;23;20172;-93
2023/07/22 02:49:21;;;;;;;3.47;3.17;;;;;;;;;;6150687;23;20199;-92
2023/07/22 02:51:49;;;;;;;2.67;2.47;;;;;;;;;;6151939;23;20219;-92
2023/07/22 02:54:16;;;;;;;2.90;2.58;;;;;;;;;;6151725;23;20242;-92
2023/07/22 02:56:44;;;;;;;3.28;2.67;;;;;;;;;;6152018;23;20190;-92
2023/07/22 02:59:12;;;;;;;3.15;2.53;;;;;;;;;;6151830;23;20176;-91
2023/07/22 03:01:41;;;;;;;2.10;2.00;;;;;;;;;;6151993;23;20183;-93
2023/07/22 03:04:09;;;;;;;3.20;2.67;;;;;;;;;;6152432;23;20159;-92
2023/07/22 03:06:36;;;;;;;2.80;2.60;;;;;;;;;;6152488;23;20183;-91
2023/07/22 03:09:04;;;;;;;3.03;2.72;;;;;;;;;;6151357;23;20206;-92
2023/07/22 03:11:32;;;;;;;2.78;2.58;;;;;;;;;;6151221;23;20187;-91
2023/07/22 03:13:59;;;;;;;3.53;3.22;;;;;;;;;;6152433;23;20176;-91
2023/07/22 03:16:27;;;;;;;3.00;2.72;;;;;;;;;;6152318;23;20182;-92
2023/07/22 03:18:56;;;;;;;2.63;2.42;;;;;;;;;;6152166;23;20199;-91
2023/07/22 03:21:24;;;;;;;2.55;2.33;;;;;;;;;;6151368;23;20176;-92
2023/07/22 03:23:51;;;;;;;2.22;2.03;;;;;;;;;;6152472;23;20187;-92
2023/07/22 03:26:19;;;;;;;2.65;2.45;;;;;;;;;;6153596;23;20163;-91
2023/07/22 03:28:46;;;;;;;2.80;2.60;;;;;;;;;;6153476;23;20183;-92
2023/07/22 03:31:14;;;;;;;3.55;3.22;;;;;;;;;;6152892;23;20195;-92
2023/07/22 03:33:45;;;;;;;3.70;2.65;;;;;;;;;;6151940;23;20163;-92
2023/07/22 03:36:14;;;;;;;2.70;2.50;;;;;;;;;;6152426;23;20175;-92
2023/07/22 03:38:42;;;;;;;3.33;2.70;;;;;;;;;;6151447;23;20180;-92
2023/07/22 03:41:10;;;;;;;2.67;2.47;;;;;;;;;;6152338;23;20183;-91
2023/07/22 03:43:37;;;;;;;2.42;2.28;;;;;;;;;;6152475;23;20172;-92
2023/07/22 03:46:05;;;;;;;2.60;2.40;;;;;;;;;;6151580;23;20179;-91
2023/07/22 03:48:32;;;;;;;4.20;3.22;;;;;;;;;;6150268;23;20195;-91
2023/07/22 03:51:00;;;;;;;2.30;2.10;;;;;;;;;;6145634;23;20175;-91
2023/07/22 03:53:29;;;;;;;2.38;2.17;;;;;;;;;;6144204;23;20212;-91
2023/07/22 03:55:56;;;;;;;2.10;2.00;;;;;;;;;;6144146;23;20160;-91
2023/07/22 03:58:24;;;;;;;2.10;2.00;;;;;;;;;;6144019;23;20203;-90
2023/07/22 04:00:52;;;;;;;3.47;2.10;;;;;;;;;;6143751;23;20176;-91
2023/07/22 04:03:20;;;;;;;2.45;2.25;;;;;;;;;;6143979;23;20188;-92
2023/07/22 04:05:55;;;;;;;2.47;2.28;;;;;;;;;;6144318;23;20186;-91
2023/07/22 04:08:23;;;;;;;2.63;2.42;;;;;;;;;;6144378;23;20203;-92
2023/07/22 04:10:55;;;;;;;2.55;2.35;;;;;;;;;;6144446;23;20213;-92
2023/07/22 04:13:25;;;;;;;2.42;2.30;;;;;;;;;;6147571;23;20178;-92
2023/07/22 04:15:53;;;;;;;2.65;2.45;;;;;;;;;;6146995;23;20168;-92
2023/07/22 04:18:22;;;;;;;4.65;2.97;;;;;;;;;;6147268;23;20206;-92
2023/07/22 04:20:52;;;;;;;2.22;2.03;;;;;;;;;;6146632;23;20183;-91
2023/07/22 04:23:20;;;;;;;2.42;2.22;;;;;;;;;;6146998;23;20203;-92
2023/07/22 04:25:47;;;;;;;2.40;2.20;;;;;;;;;;6147998;23;20222;-93
2023/07/22 04:28:16;;;;;;;1.98;1.88;;;;;;;;;;6148715;23;20183;-92
2023/07/22 04:30:44;;;;;;;2.50;2.30;;;;;;;;;;6148589;23;20228;-92
2023/07/22 04:33:11;;;;;;;2.60;2.40;;;;;;;;;;6148937;23;20207;-92
2023/07/22 04:35:41;;;;;;;3.17;2.72;;;;;;;;;;6150758;23;20163;-92
2023/07/22 04:38:09;;;;;;;3.15;2.95;;;;;;;;;;6149474;23;20240;-92
2023/07/22 04:40:37;;;;;;;2.85;2.65;;;;;;;;;;6148811;23;20164;-92
2023/07/22 04:43:05;;;;;;;2.80;2.60;;;;;;;;;;6149231;23;20164;-91
2023/07/22 04:45:34;;;;;;;2.55;2.35;;;;;;;;;;6148704;23;20176;-92
2023/07/22 04:48:03;;;;;;;3.78;3.47;;;;;;;;;;6148748;23;20203;-92
2023/07/22 04:50:30;;;;;;;3.75;3.45;;;;;;;;;;6149035;23;20183;-91
2023/07/22 04:52:58;;;;;;;3.58;3.28;;;;;;;;;;6149111;23;20207;-93
2023/07/22 04:55:26;;;;;;;3.53;3.15;;;;;;;;;;6147995;23;20213;-94
2023/07/22 04:57:54;;;;;;;3.35;2.75;;;;;;;;;;6148285;23;20200;-92
2023/07/22 05:00:22;;;;;;;2.75;2.55;;;;;;;;;;6147723;23;20192;-91
2023/07/22 05:02:52;;;;;;;2.50;2.30;;;;;;;;;;6147796;23;20191;-91
2023/07/22 05:05:21;;;;;;;2.45;2.25;;;;;;;;;;6147880;23;20428;-92
2023/07/22 05:07:49;;;;;;;2.63;2.42;;;;;;;;;;6147016;23;20180;-92
2023/07/22 05:10:19;;;;;;;2.97;2.78;;;;;;;;;;6146599;23;20191;-94
2023/07/22 05:12:46;;;;;;;3.05;2.78;;;;;;;;;;6148041;23;20188;-92
2023/07/22 05:15:15;;;;;;;3.50;3.20;;;;;;;;;;6146293;23;20178;-91
2023/07/22 05:17:42;;;;;;;3.45;3.15;;;;;;;;;;6145813;23;20216;-92
2023/07/22 05:20:12;;;;;;;4.55;4.10;;;;;;;;;;6145575;23;20155;-92
2023/07/22 05:22:41;;;;;;;4.57;4.18;;;;;;;;;;6146187;23;20206;-90
2023/07/22 05:25:10;;;;;;;7.03;3.92;;;;;;;;;;6148762;23;20552;-92
2023/07/22 05:27:38;;;;;;;3.80;3.50;;;;;;;;;;6145608;23;20202;-92
2023/07/22 05:30:07;;;;;;;4.28;3.97;;;;;;;;;;6146119;23;20179;-92
2023/07/22 05:32:35;;;;;;;3.70;2.65;;;;;;;;;;6147172;23;20187;-91
2023/07/22 05:35:05;;;;;;;3.80;3.50;;;;;;;;;;6147149;23;20224;-91
2023/07/22 05:37:34;;;;;;;4.70;4.18;;;;;;;;;;6147114;23;20434;-91
2023/07/22 05:40:02;;;;;;;3.30;3.10;;;;;;;;;;6147267;23;20163;-91
2023/07/22 05:42:29;;;;;;;5.03;4.50;;;;;;;;;;6146947;23;20191;-92
2023/07/22 05:45:00;;;;;;;5.22;3.40;;;;;;;;;;6146791;23;20163;-91
2023/07/22 05:47:27;;;;;;;3.95;3.42;;;;;;;;;;6147931;23;20176;-92
2023/07/22 05:49:55;;;;;;;4.88;3.90;;;;;;;;;;6149131;23;20178;-90
2023/07/22 05:52:23;;;;;;;5.70;4.00;;;;;;;;;;6153672;23;20214;-92
2023/07/22 05:54:52;;;;;;;9.25;5.50;;;;;;;;;;6154048;23;20175;-93
2023/07/22 05:57:19;;;;;;;4.68;4.28;;;;;;;;;;6153748;23;20185;-92
2023/07/22 05:59:47;;;;;;;5.57;4.82;;;;;;;;;;6153358;23;20167;-93
2023/07/22 06:02:15;;;;;;;5.18;4.68;;;;;;;;;;6153906;23;20164;-92
2023/07/22 06:04:42;;;;;;;6.03;4.93;;;;;;;;;;6154235;23;20159;-91
2023/07/22 06:07:10;;;;;;;4.90;4.50;;;;;;;;;;6153764;23;20167;-92
2023/07/22 06:09:37;;;;;;;4.75;4.35;;;;;;;;;;6153237;23;20191;-91
2023/07/22 06:12:08;;;;;;;6.43;4.05;;;;;;;;;;6154502;23;20162;-91
2023/07/22 06:14:35;;;;;;;4.57;4.18;;;;;;;;;;6154999;23;20156;-91
2023/07/22 06:17:03;;;;;;;5.93;5.18;;;;;;;;;;6154250;23;20176;-92
2023/07/22 06:19:31;;;;;;;4.93;4.13;;;;;;;;;;6153908;23;20179;-91
2023/07/22 06:21:58;;;;;;;5.20;3.90;;;;;;;;;;6154405;23;20155;-91
2023/07/22 06:24:26;;;;;;;4.20;3.80;;;;;;;;;;6153560;23;20160;-93
2023/07/22 06:26:54;;;;;;;5.30;4.80;;;;;;;;;;6153914;23;20159;-93
2023/07/22 06:29:23;;;;;;;5.65;3.78;;;;;;;;;;6153653;23;20191;-92
2023/07/22 06:31:50;;;;;;;4.20;3.13;;;;;;;;;;6154193;23;20156;-91
2023/07/22 06:34:18;;;;;;;4.10;3.80;;;;;;;;;;6153561;23;20208;-94
2023/07/22 06:36:45;;;;;;;7.72;4.88;;;;;;;;;;6153972;23;20176;-92
2023/07/22 06:39:13;;;;;;;4.93;3.95;;;;;;;;;;6153509;23;20206;-92
2023/07/22 06:41:40;;;;;;;4.57;4.18;;;;;;;;;;6153495;23;20155;-91
2023/07/22 06:44:08;;;;;;;6.90;4.63;;;;;;;;;;6153848;23;20160;-92
2023/07/22 06:46:37;;;;;;;4.15;3.75;;;;;;;;;;6153867;23;20168;-93
2023/07/22 06:49:05;;;;;;;4.68;3.85;;;;;;;;;;6153342;23;20184;-92
2023/07/22 06:51:32;;;;;;;4.25;3.85;;;;;;;;;;6153572;23;20176;-91
2023/07/22 06:54:00;;;;;;;2.97;2.78;;;;;;;;;;6153211;23;20204;-93
2023/07/22 06:56:28;;;;;;;4.03;3.72;;;;;;;;;;6153718;23;20152;-93
2023/07/22 06:58:56;;;;;;;5.05;3.92;;;;;;;;;;6153648;23;20180;-92
2023/07/22 07:01:24;;;;;;;4.63;3.90;;;;;;;;;;6153536;23;20174;-92
2023/07/22 07:03:53;;;;;;;4.32;3.58;;;;;;;;;;6153698;23;20152;-93
2023/07/22 07:06:20;;;;;;;4.63;4.22;;;;;;;;;;6153693;23;20163;-92
2023/07/22 07:08:48;;;;;;;4.70;4.15;;;;;;;;;;6153131;23;20199;-93
2023/07/22 07:11:16;;;;;;;4.85;4.03;;;;;;;;;;6152767;23;20164;-93
2023/07/22 07:13:44;;;;;;;7.03;4.53;;;;;;;;;;6153039;23;20215;-91
2023/07/22 07:16:26;;;;;;;4.32;3.92;;;;;;;;;;6153272;23;20164;-91
2023/07/22 07:18:56;;;;;;;3.45;3.15;;;;;;;;;;6153582;23;20183;-93
2023/07/22 07:21:23;;;;;;;8.13;5.22;;;;;;;;;;6153484;23;20148;-92
2023/07/22 07:23:51;;;;;;;4.57;4.18;;;;;;;;;;6153581;23;20156;-93
2023/07/22 07:26:19;;;;;;;4.78;4.38;;;;;;;;;;6153460;23;20152;-93
2023/07/22 07:28:47;;;;;;;4.40;3.53;;;;;;;;;;6153402;23;20183;-91
2023/07/22 07:31:15;;;;;;;3.53;3.13;;;;;;;;;;6153397;23;20171;-92
2023/07/22 07:33:42;;;;;;;4.72;4.30;;;;;;;;;;6153351;23;20192;-91
2023/07/22 07:36:12;;;;;;;3.00;2.80;;;;;;;;;;6153584;23;20170;-91
2023/07/22 07:38:39;;;;;;;4.50;4.10;;;;;;;;;;6153200;23;20180;-92
2023/07/22 07:41:11;;;;;;;3.78;3.47;;;;;;;;;;6153039;23;20167;-92
2023/07/22 07:43:39;;;;;;;4.63;4.22;;;;;;;;;;6153347;23;20156;-91
2023/07/22 07:46:21;;;;;;;3.40;3.10;;;;;;;;;;6153069;23;20163;-91
2023/07/22 07:48:50;;;;;;;3.53;3.22;;;;;;;;;;6153337;23;20179;-92
2023/07/22 07:51:21;;;;;;;3.53;3.30;;;;;;;;;;6153313;23;20156;-92
2023/07/22 07:53:49;;;;;;;4.65;3.75;;;;;;;;;;6153365;23;20191;-91
2023/07/22 07:56:18;;;;;;;4.47;3.72;;;;;;;;;;6153103;23;20163;-91
2023/07/22 07:58:47;;;;;;;4.15;3.75;;;;;;;;;;6153025;23;20212;-91
2023/07/22 08:01:15;;;;;;;5.03;4.55;;;;;;;;;;6152780;23;20180;-91
2023/07/22 08:03:44;;;;;;;3.83;3.53;;;;;;;;;;6153191;23;20156;-92
2023/07/22 08:06:12;;;;;;;4.63;4.22;;;;;;;;;;6153296;23;20159;-92
2023/07/22 08:08:41;;;;;;;3.97;3.67;;;;;;;;;;6151802;23;20191;-92
2023/07/22 08:11:10;;;;;;;7.72;4.55;;;;;;;;;;6152921;23;20176;-93
2023/07/22 08:13:38;;;;;;;6.00;5.05;;;;;;;;;;6153101;23;20179;-92
2023/07/22 08:16:08;;;;;;;3.83;3.53;;;;;;;;;;6152824;23;20160;-91
2023/07/22 08:18:36;;;;;;;3.25;3.00;;;;;;;;;;6153159;23;20241;-93
2023/07/22 08:21:06;;;;;;;4.95;4.40;;;;;;;;;;6152595;23;20160;-92
2023/07/22 08:23:34;;;;;;;4.20;3.83;;;;;;;;;;6152969;23;20224;-92
2023/07/22 08:26:03;;;;;;;3.60;3.30;;;;;;;;;;6153009;23;20166;-92
2023/07/22 08:28:32;;;;;;;4.03;3.72;;;;;;;;;;6152215;23;20196;-93
2023/07/22 08:31:01;;;;;;;4.45;4.05;;;;;;;;;;6152057;23;20199;-92
2023/07/22 08:33:29;;;;;;;4.47;3.75;;;;;;;;;;6151539;23;20176;-93
2023/07/22 08:35:56;;;;;;;3.78;3.35;;;;;;;;;;6152401;23;20183;-91
2023/07/22 08:38:24;;;;;;;4.03;3.70;;;;;;;;;;6151744;23;20175;-91
2023/07/22 08:40:52;;;;;;;4.70;3.88;;;;;;;;;;6151972;23;20175;-91
2023/07/22 08:43:23;;;;;;;3.65;3.38;;;;;;;;;;6151525;23;20183;-91
2023/07/22 08:45:53;;;;;;;3.15;2.95;;;;;;;;;;6152612;23;20159;-93
2023/07/22 08:48:25;;;;;;;3.83;3.53;;;;;;;;;;6153220;23;20182;-92
2023/07/22 08:50:56;;;;;;;3.90;3.50;;;;;;;;;;6152209;23;20171;-92
2023/07/22 08:53:25;;;;;;;4.15;3.80;;;;;;;;;;6152899;23;20167;-92
2023/07/22 08:55:53;;;;;;;3.38;3.08;;;;;;;;;;6152297;23;20231;-93
2023/07/22 08:58:23;;;;;;;3.67;3.38;;;;;;;;;;6154401;23;20194;-93
2023/07/22 09:00:50;;;;;;;3.47;3.17;;;;;;;;;;6154213;23;20164;-93
2023/07/22 09:03:19;;;;;;;5.28;4.53;;;;;;;;;;6154005;23;20167;-92
2023/07/22 09:05:47;;;;;;;3.40;3.10;;;;;;;;;;6153016;23;20159;-92
2023/07/22 09:08:17;;;;;;;5.03;4.32;;;;;;;;;;6154304;23;20190;-93
2023/07/22 09:10:45;;;;;;;4.70;4.30;;;;;;;;;;6154139;23;20191;-91
2023/07/22 09:13:13;;;;;;;5.60;4.38;;;;;;;;;;6154974;23;20184;-93
2023/07/22 09:15:43;;;;;;;4.43;4.03;;;;;;;;;;6154749;23;20216;-92
2023/07/22 09:18:10;;;;;;;5.10;4.60;;;;;;;;;;6154664;23;20182;-92
2023/07/22 09:20:38;;;;;;;4.28;3.88;;;;;;;;;;6154278;23;20164;-93
2023/07/22 09:23:07;;;;;;;3.08;2.88;;;;;;;;;;6154782;23;20156;-92
2023/07/22 09:25:34;;;;;;;4.10;3.65;;;;;;;;;;6154617;23;20160;-91
2023/07/22 09:28:02;;;;;;;3.88;3.58;;;;;;;;;;6154450;23;20190;-92
2023/07/22 09:30:32;;;;;;;5.40;4.32;;;;;;;;;;6154087;23;20167;-92
2023/07/22 09:33:03;;;;;;;4.80;4.20;;;;;;;;;;6154206;23;20156;-91
2023/07/22 09:35:33;;;;;;;5.28;4.82;;;;;;;;;;6154167;23;20184;-93
2023/07/22 09:38:01;;;;;;;4.05;3.65;;;;;;;;;;6154288;23;20192;-92
2023/07/22 09:40:29;;;;;;;5.32;4.82;;;;;;;;;;6153832;23;20184;-92
2023/07/22 09:42:58;;;;;;;3.80;3.50;;;;;;;;;;6154676;23;20178;-92
2023/07/22 09:45:29;;;;;;;4.10;3.80;;;;;;;;;;6154394;23;20160;-93
2023/07/22 09:47:57;;;;;;;3.35;3.15;;;;;;;;;;6153839;23;20187;-94
2023/07/22 09:50:27;;;;;;;3.97;3.67;;;;;;;;;;6154166;23;20155;-93
2023/07/22 09:52:57;;;;;;;3.97;3.67;;;;;;;;;;6154433;23;20183;-93
2023/07/22 09:55:28;;;;;;;4.63;4.28;;;;;;;;;;6154309;23;20183;-93
2023/07/22 09:57:58;;;;;;;3.67;3.38;;;;;;;;;;6152765;23;20191;-93
2023/07/22 10:00:30;;;;;;;4.20;3.85;;;;;;;;;;6152962;23;20204;-94
2023/07/22 10:02:59;;;;;;;4.32;3.70;;;;;;;;;;6154251;23;20216;-92
2023/07/22 10:05:29;;;;;;;4.00;3.70;;;;;;;;;;6154132;23;20164;-93
2023/07/22 10:07:59;;;;;;;4.45;4.05;;;;;;;;;;6153865;23;20244;-93
2023/07/22 10:10:31;;;;;;;3.70;3.40;;;;;;;;;;6153218;23;20171;-92
2023/07/22 10:12:59;;;;;;;3.13;2.83;;;;;;;;;;6154194;23;20170;-93
2023/07/22 10:15:29;;;;;;;3.50;3.20;;;;;;;;;;6153856;23;20203;-93
2023/07/22 10:17:57;;;;;;;4.78;4.38;;;;;;;;;;6153596;23;20199;-93
2023/07/22 10:20:27;;;;;;;3.55;3.22;;;;;;;;;;6152223;23;20171;-94
2023/07/22 10:22:55;;;;;;;3.95;3.65;;;;;;;;;;6153807;23;20160;-93
2023/07/22 10:25:23;;;;;;;3.20;3.00;;;;;;;;;;6154229;23;20164;-92
2023/07/22 10:27:52;;;;;;;3.38;3.10;;;;;;;;;;6153949;23;20179;-93
2023/07/22 10:30:20;;;;;;;3.78;3.08;;;;;;;;;;6153689;23;20163;-94
2023/07/22 10:32:49;;;;;;;3.22;2.83;;;;;;;;;;6152975;23;20195;-92
2023/07/22 10:35:23;;;;;;;3.60;3.15;;;;;;;;;;6145212;23;20191;-93
2023/07/22 10:37:54;;;;;;;3.50;3.20;;;;;;;;;;6149571;23;20223;-93
2023/07/22 10:40:28;;;;;;;3.22;3.03;;;;;;;;;;6152254;23;20172;-93
2023/07/22 10:43:00;;;;;;;3.83;3.38;;;;;;;;;;6153402;23;20179;-91
2023/07/22 10:45:29;;;;;;;3.10;2.90;;;;;;;;;;6153111;23;20184;-93
2023/07/22 10:48:06;;;;;;;3.10;2.90;;;;;;;;;;6152563;23;20191;-92
2023/07/22 10:53:59;;;;;;;3.42;3.22;;;;;;;;;;5167377;27;20531;-94
2023/07/22 11:02:31;;;;;;;3.03;2.83;;;;;;;;;;5585429;22;20218;-90
2023/07/22 11:05:00;;;;;;;3.60;3.30;;;;;;;;;;5007231;28;20204;-90
2023/07/22 11:07:34;;;;;;;3.53;3.22;;;;;;;;;;4993447;28;20211;-94
2023/07/22 11:10:16;;;;;;;3.90;3.63;;;;;;;;;;4992305;28;20220;-91
2023/07/22 11:12:45;;;;;;;2.95;2.72;;;;;;;;;;4968967;28;20233;-92
2023/07/22 11:54:10;;;;;;;2.83;2.63;;;;;;;;;;5031137;28;20261;-92
2023/07/22 11:56:37;;;;;;;2.97;2.78;;;;;;;;;;5033711;28;20230;-92
2023/07/22 11:59:05;;;;;;;3.30;2.95;;;;;;;;;;5033587;28;20210;-92
2023/07/22 12:01:34;;;;;;;2.80;2.58;;;;;;;;;;5033667;28;20203;-90
2023/07/22 12:04:01;;;;;;;3.30;3.00;;;;;;;;;;5026692;28;20226;-90
2023/07/22 12:06:30;;;;;;;3.13;2.92;;;;;;;;;;5000694;28;20261;-92
2023/07/22 12:08:58;;;;;;;3.70;3.45;;;;;;;;;;5000452;28;20200;-89
2023/07/22 12:11:27;;;;;;;3.95;3.28;;;;;;;;;;4998917;28;20216;-91
2023/07/22 12:14:08;;;;;;;3.47;3.17;;;;;;;;;;4999436;28;20239;-89
2023/07/22 12:16:37;;;;;;;3.10;2.90;;;;;;;;;;4999782;28;20196;-90
2023/07/22 12:19:05;;;;;;;2.60;2.40;;;;;;;;;;4999494;28;20204;-90
2023/07/22 12:21:33;;;;;;;3.72;2.90;;;;;;;;;;5000275;28;20208;-92
2023/07/22 12:24:01;;;;;;;3.13;2.92;;;;;;;;;;4998432;28;20216;-93
2023/07/22 12:26:30;;;;;;;3.30;3.05;;;;;;;;;;4997784;28;20220;-91
2023/07/22 12:28:59;;;;;;;2.80;2.60;;;;;;;;;;4999037;28;20223;-93
2023/07/22 12:31:27;;;;;;;2.88;2.67;;;;;;;;;;4997043;28;20228;-94
2023/07/22 12:33:54;;;;;;;2.80;2.60;;;;;;;;;;5004767;28;20251;-93
2023/07/22 12:36:22;;;;;;;3.13;2.83;;;;;;;;;;5010358;28;20198;-92
2023/07/22 12:38:49;;;;;;;2.58;2.40;;;;;;;;;;5020323;28;20231;-91
2023/07/22 12:41:17;;;;;;;2.78;2.58;;;;;;;;;;5019679;28;20210;-93
2023/07/22 12:43:46;;;;;;;3.30;3.03;;;;;;;;;;5019788;28;20184;-92
2023/07/22 12:46:14;;;;;;;3.33;3.03;;;;;;;;;;5018501;28;20214;-91
2023/07/22 12:48:41;;;;;;;3.15;2.95;;;;;;;;;;5019178;28;20198;-90
2023/07/22 12:51:09;;;;;;;3.15;2.95;;;;;;;;;;5018663;28;20227;-92
2023/07/22 12:53:37;;;;;;;2.72;2.53;;;;;;;;;;5019387;28;20555;-93
2023/07/22 12:56:05;;;;;;;3.03;2.83;;;;;;;;;;5019519;28;20194;-93
2023/07/22 12:58:33;;;;;;;3.97;3.67;;;;;;;;;;5019516;28;20207;-92
2023/07/22 13:01:02;;;;;;;4.88;2.97;;;;;;;;;;5018959;28;20234;-93
2023/07/22 13:03:30;;;;;;;3.28;3.08;;;;;;;;;;5015134;28;20210;-93
2023/07/22 13:05:57;;;;;;;3.13;2.88;;;;;;;;;;5002346;28;20212;-93
2023/07/22 13:08:25;;;;;;;3.13;2.92;;;;;;;;;;5017555;28;20218;-92
2023/07/22 13:10:52;;;;;;;2.15;2.05;;;;;;;;;;5019229;28;20208;-95
2023/07/22 13:13:20;;;;;;;2.97;2.67;;;;;;;;;;5019448;28;20215;-94
2023/07/22 13:15:48;;;;;;;3.08;2.88;;;;;;;;;;5018511;28;20192;-93
2023/07/22 13:18:16;;;;;;;2.67;2.47;;;;;;;;;;5018470;28;20215;-91
2023/07/22 13:20:44;;;;;;;2.33;2.13;;;;;;;;;;5019241;28;20211;-93
2023/07/22 13:23:12;;;;;;;2.65;2.35;;;;;;;;;;5016500;28;20203;-93
2023/07/22 13:25:39;;;;;;;3.20;2.90;;;;;;;;;;5004403;28;20211;-93
2023/07/22 13:28:07;;;;;;;2.65;2.45;;;;;;;;;;5018326;28;20226;-91
2023/07/22 13:30:35;;;;;;;3.70;3.42;;;;;;;;;;5017730;28;20215;-92
2023/07/22 13:33:02;;;;;;;2.60;2.40;;;;;;;;;;5017859;28;20203;-94
2023/07/22 13:35:32;;;;;;;2.90;2.70;;;;;;;;;;5018446;28;20216;-93
2023/07/22 13:37:59;;;;;;;2.47;2.35;;;;;;;;;;5017116;28;20211;-93
2023/07/22 13:40:27;;;;;;;2.95;2.20;;;;;;;;;;5017985;28;20215;-92
2023/07/22 13:42:54;;;;;;;2.83;2.63;;;;;;;;;;5015165;28;20204;-93
2023/07/22 13:45:22;;;;;;;3.42;3.13;;;;;;;;;;5015552;28;20192;-93
2023/07/22 13:47:50;;;;;;;2.53;2.33;;;;;;;;;;5009732;28;20279;-94
2023/07/22 13:50:18;;;;;;;2.22;2.13;;;;;;;;;;5009113;28;20637;-92
2023/07/22 13:52:47;;;;;;;2.60;2.40;;;;;;;;;;5006554;28;20272;-93
2023/07/22 13:55:14;;;;;;;2.28;2.13;;;;;;;;;;4995343;28;20212;-93
2023/07/22 13:57:42;;;;;;;2.38;2.28;;;;;;;;;;4998761;28;20390;-93
2023/07/22 14:00:11;;;;;;;2.63;2.42;;;;;;;;;;4995880;28;20323;-93
2023/07/22 14:02:39;;;;;;;2.33;2.22;;;;;;;;;;4995988;28;20221;-92
2023/07/22 14:05:08;;;;;;;2.95;2.70;;;;;;;;;;4994937;28;20192;-94
2023/07/22 14:07:37;;;;;;;2.75;2.58;;;;;;;;;;4992718;28;20215;-94
2023/07/22 14:10:08;;;;;;;2.55;2.42;;;;;;;;;;4998709;28;20219;-92
2023/07/22 14:12:36;;;;;;;2.40;2.20;;;;;;;;;;4994253;28;20224;-93
2023/07/22 14:15:06;;;;;;;2.95;2.65;;;;;;;;;;4994742;28;20239;-94
2023/07/22 14:17:33;;;;;;;2.08;1.98;;;;;;;;;;4992010;28;20207;-93
2023/07/22 14:20:04;;;;;;;2.60;2.40;;;;;;;;;;4994830;28;20227;-94
2023/07/22 14:22:31;;;;;;;2.95;2.70;;;;;;;;;;4998719;28;20212;-92
2023/07/22 14:24:59;;;;;;;1.98;1.85;;;;;;;;;;4992054;28;20216;-94
2023/07/22 14:27:28;;;;;;;2.33;2.13;;;;;;;;;;4996510;28;20256;-93
2023/07/22 14:29:55;;;;;;;2.50;2.30;;;;;;;;;;4998093;28;20219;-93
2023/07/22 14:32:23;;;;;;;2.95;2.75;;;;;;;;;;4997657;28;20240;-93
2023/07/22 14:34:51;;;;;;;2.17;2.00;;;;;;;;;;4997219;28;20247;-94
2023/07/22 14:37:19;;;;;;;2.17;2.00;;;;;;;;;;4997760;28;20204;-94
2023/07/22 14:39:47;;;;;;;2.25;2.10;;;;;;;;;;4997738;28;20189;-93
2023/07/22 14:42:14;;;;;;;2.25;2.15;;;;;;;;;;4996872;28;20229;-93
2023/07/22 14:44:43;;;;;;;2.30;2.10;;;;;;;;;;4997904;28;20204;-93
2023/07/22 14:47:11;;;;;;;1.60;1.50;;;;;;;;;;4997527;28;20205;-93
2023/07/22 14:49:38;;;;;;;1.80;1.70;;;;;;;;;;4997595;28;20219;-93
2023/07/22 14:52:07;;;;;;;1.90;1.80;;;;;;;;;;5011490;28;20220;-94
2023/07/22 14:54:35;;;;;;;1.63;1.52;;;;;;;;;;5017845;28;20208;-93
2023/07/22 14:57:03;;;;;;;1.92;1.83;;;;;;;;;;5017976;28;20207;-93
2023/07/22 14:59:30;;;;;;;1.90;1.80;;;;;;;;;;5017962;28;20190;-93
2023/07/22 15:01:59;;;;;;;2.17;1.98;;;;;;;;;;5017549;28;20204;-92
2023/07/22 15:04:27;;;;;;;2.20;2.10;;;;;;;;;;5017952;28;20180;-94
2023/07/22 15:06:55;;;;;;;2.03;1.92;;;;;;;;;;5017925;28;20187;-95
2023/07/22 15:09:22;;;;;;;1.90;1.80;;;;;;;;;;5017853;28;20188;-93
2023/07/22 15:11:50;;;;;;;2.65;1.80;;;;;;;;;;5017738;28;20199;-92
2023/07/22 15:14:17;;;;;;;1.90;1.80;;;;;;;;;;5017886;28;20200;-93
2023/07/22 15:16:45;;;;;;;2.45;2.25;;;;;;;;;;5017805;28;20195;-94
2023/07/22 15:19:14;;;;;;;2.42;2.22;;;;;;;;;;5017816;28;20184;-95
2023/07/22 15:21:42;;;;;;;2.55;2.20;;;;;;;;;;5017109;28;20199;-93
2023/07/22 15:24:09;;;;;;;2.05;1.95;;;;;;;;;;5000326;28;20208;-95
2023/07/22 15:26:37;;;;;;;2.17;2.08;;;;;;;;;;4998265;28;20181;-94
2023/07/22 15:29:04;;;;;;;1.80;1.70;;;;;;;;;;4998284;28;20196;-94
2023/07/22 15:31:32;;;;;;;2.08;1.98;;;;;;;;;;4997971;28;20212;-94
2023/07/22 15:34:00;;;;;;;2.50;2.30;;;;;;;;;;4998194;28;20185;-94
2023/07/22 15:36:33;;;;;;;2.28;2.17;;;;;;;;;;4998169;28;20181;-93
2023/07/22 15:39:01;;;;;;;2.00;1.90;;;;;;;;;;4999076;28;20192;-94
2023/07/22 15:41:28;;;;;;;2.03;1.92;;;;;;;;;;5001573;28;20195;-93
2023/07/22 15:43:56;;;;;;;2.15;1.95;;;;;;;;;;5001822;28;20188;-94
2023/07/22 15:46:24;;;;;;;2.10;1.90;;;;;;;;;;5001762;28;20188;-96
2023/07/22 15:48:51;;;;;;;2.20;2.10;;;;;;;;;;5001814;28;20195;-94
2023/07/22 15:51:24;;;;;;;4.05;2.33;;;;;;;;;;5001419;28;20203;-95
2023/07/22 15:53:53;;;;;;;2.30;2.20;;;;;;;;;;5014366;28;20200;-95
2023/07/22 15:56:21;;;;;;;3.30;3.00;;;;;;;;;;5020224;28;20214;-96
2023/07/22 15:58:48;;;;;;;2.13;2.03;;;;;;;;;;5021067;28;20180;-94
2023/07/22 16:01:16;;;;;;;2.55;2.10;;;;;;;;;;5020498;28;20199;-95
2023/07/22 16:03:43;;;;;;;4.45;2.63;;;;;;;;;;5020970;28;20207;-93
2023/07/22 16:06:11;;;;;;;1.95;1.85;;;;;;;;;;5020939;28;20194;-94
2023/07/22 16:08:39;;;;;;;1.90;1.70;;;;;;;;;;5020962;28;20428;-93
2023/07/22 16:11:08;;;;;;;2.28;2.17;;;;;;;;;;5020591;28;20207;-95
2023/07/22 16:13:35;;;;;;;2.22;2.03;;;;;;;;;;5020860;28;20204;-95
2023/07/22 16:16:03;;;;;;;2.15;2.05;;;;;;;;;;5020653;28;20219;-94
2023/07/22 16:18:31;;;;;;;2.20;2.10;;;;;;;;;;5020676;28;20230;-94
2023/07/22 16:20:59;;;;;;;3.35;2.65;;;;;;;;;;5020435;28;20203;-93
2023/07/22 16:23:26;;;;;;;2.33;2.13;;;;;;;;;;5020255;28;20183;-94
2023/07/22 16:25:54;;;;;;;2.63;2.42;;;;;;;;;;5020353;28;20192;-95
2023/07/22 16:28:23;;;;;;;2.10;2.00;;;;;;;;;;5020589;28;20191;-94
2023/07/22 16:30:51;;;;;;;2.30;2.10;;;;;;;;;;5020269;28;20191;-95
2023/07/22 16:33:19;;;;;;;2.15;2.05;;;;;;;;;;5020407;28;20206;-94
2023/07/22 16:35:47;;;;;;;2.00;1.90;;;;;;;;;;5020338;28;20191;-95
2023/07/22 16:38:14;;;;;;;2.22;2.03;;;;;;;;;;5020260;28;20192;-94
2023/07/22 16:40:42;;;;;;;1.85;1.75;;;;;;;;;;5020119;28;20263;-94
2023/07/22 16:43:09;;;;;;;2.05;1.95;;;;;;;;;;5020312;28;20184;-94
2023/07/22 16:45:39;;;;;;;1.65;1.55;;;;;;;;;;5020199;28;20184;-94
2023/07/22 16:48:07;;;;;;;2.50;2.30;;;;;;;;;;5020162;28;20180;-94
2023/07/22 16:50:34;;;;;;;2.22;2.10;;;;;;;;;;5019633;28;20387;-93
2023/07/22 16:53:03;;;;;;;2.38;2.17;;;;;;;;;;5019460;28;20200;-94
2023/07/22 16:55:31;;;;;;;2.00;1.90;;;;;;;;;;5019725;28;20227;-94
2023/07/22 16:57:58;;;;;;;2.50;2.30;;;;;;;;;;5020011;28;20188;-94
2023/07/22 17:00:27;;;;;;;2.15;2.05;;;;;;;;;;5019540;28;20184;-94
2023/07/22 17:02:56;;;;;;;2.50;2.35;;;;;;;;;;5019917;28;20312;-95
2023/07/22 17:05:24;;;;;;;2.58;1.80;;;;;;;;;;5019833;28;20194;-94
2023/07/22 17:07:52;;;;;;;2.10;1.83;;;;;;;;;;5019767;28;20380;-93
2023/07/22 17:10:20;;;;;;;2.20;2.00;;;;;;;;;;5019497;28;20188;-93
2023/07/22 17:12:48;;;;;;;2.00;1.90;;;;;;;;;;5019744;28;20188;-93
2023/07/22 17:15:15;;;;;;;2.85;2.00;;;;;;;;;;5019559;28;20183;-93
2023/07/22 17:17:44;;;;;;;1.85;1.75;;;;;;;;;;5019592;28;20187;-93
2023/07/22 17:20:14;;;;;;;1.75;1.65;;;;;;;;;;5019449;28;20176;-93
2023/07/22 17:22:42;;;;;;;1.90;1.80;;;;;;;;;;5018938;28;20208;-93
2023/07/22 17:25:10;;;;;;;1.63;1.52;;;;;;;;;;5019314;28;20187;-94
2023/07/22 17:27:37;;;;;;;2.13;2.00;;;;;;;;;;5019388;28;20179;-93
2023/07/22 17:30:06;;;;;;;2.22;2.03;;;;;;;;;;5019304;28;20191;-92
2023/07/22 17:32:34;;;;;;;2.08;1.88;;;;;;;;;;5019086;28;20199;-92
2023/07/22 17:35:01;;;;;;;1.95;1.85;;;;;;;;;;5019267;28;20184;-95
2023/07/22 17:37:30;;;;;;;1.50;1.40;;;;;;;;;;5019167;28;20196;-93
2023/07/22 17:39:58;;;;;;;2.15;1.95;;;;;;;;;;5019194;28;20183;-94
2023/07/22 17:42:26;;;;;;;1.70;1.60;;;;;;;;;;5018934;28;20239;-92
2023/07/22 17:44:55;;;;;;;1.50;1.40;;;;;;;;;;5019179;28;20179;-95
2023/07/22 17:47:22;;;;;;;1.80;1.70;;;;;;;;;;5019045;28;20190;-92